sensor_id;sensor_type;location;lat;lon;timestamp;pressure;altitude;pressure_sealevel;temperature;humidity
64211;BME280;50528;48.514;14.394;2023-02-11T00:00:16;95486.27;;;-4.12;66.01
64211;BME280;50528;48.514;14.394;2023-02-11T00:01:13;95488.20;;;-4.12;66.06
64211;BME280;50528;48.514;14.394;2023-02-11T00:01:49;95488.89;;;-4.12;65.97
64211;BME280;50528;48.514;14.394;2023-02-11T00:02:23;95493.47;;;-4.12;66.03
64211;BME280;50528;48.514;14.394;2023-02-11T00:02:59;95494.96;;;-4.11;66.08
64211;BME280;50528;48.514;14.394;2023-02-11T00:03:34;95494.95;;;-4.08;66.06
64211;BME280;50528;48.514;14.394;2023-02-11T00:04:08;95490.39;;;-4.09;66.06
64211;BME280;50528;48.514;14.394;2023-02-11T00:04:42;95489.32;;;-4.09;66.06
64211;BME280;50528;48.514;14.394;2023-02-11T00:05:16;95494.70;;;-4.07;66.19
64211;BME280;50528;48.514;14.394;2023-02-11T00:05:59;95488.42;;;-4.06;66.29
64211;BME280;50528;48.514;14.394;2023-02-11T00:06:34;95491.36;;;-4.04;66.27
64211;BME280;50528;48.514;14.394;2023-02-11T00:07:07;95494.19;;;-4.05;66.51
64211;BME280;50528;48.514;14.394;2023-02-11T00:07:41;95496.20;;;-4.05;66.43
64211;BME280;50528;48.514;14.394;2023-02-11T00:08:14;95492.23;;;-4.02;66.43
64211;BME280;50528;48.514;14.394;2023-02-11T00:08:49;95489.38;;;-3.90;66.44
64211;BME280;50528;48.514;14.394;2023-02-11T00:09:22;95485.98;;;-3.81;66.47
64211;BME280;50528;48.514;14.394;2023-02-11T00:09:55;95485.89;;;-3.87;66.71
64211;BME280;50528;48.514;14.394;2023-02-11T00:10:29;95481.80;;;-3.92;66.57
64211;BME280;50528;48.514;14.394;2023-02-11T00:11:03;95486.71;;;-3.91;66.52
64211;BME280;50528;48.514;14.394;2023-02-11T00:11:37;95488.06;;;-3.88;66.52
64211;BME280;50528;48.514;14.394;2023-02-11T00:12:10;95487.25;;;-3.91;66.33
64211;BME280;50528;48.514;14.394;2023-02-11T00:12:43;95491.66;;;-3.93;66.25
64211;BME280;50528;48.514;14.394;2023-02-11T00:13:17;95488.56;;;-3.95;66.12
64211;BME280;50528;48.514;14.394;2023-02-11T00:13:50;95490.52;;;-3.95;65.98
64211;BME280;50528;48.514;14.394;2023-02-11T00:14:23;95488.73;;;-3.97;66.01
64211;BME280;50528;48.514;14.394;2023-02-11T00:14:57;95489.52;;;-3.96;66.14
64211;BME280;50528;48.514;14.394;2023-02-11T00:15:30;95487.36;;;-3.95;65.95
64211;BME280;50528;48.514;14.394;2023-02-11T00:16:12;95488.14;;;-3.98;65.95
64211;BME280;50528;48.514;14.394;2023-02-11T00:16:45;95489.02;;;-4.01;65.69
64211;BME280;50528;48.514;14.394;2023-02-11T00:17:19;95488.05;;;-4.01;65.75
64211;BME280;50528;48.514;14.394;2023-02-11T00:17:52;95486.05;;;-3.98;65.75
64211;BME280;50528;48.514;14.394;2023-02-11T00:18:26;95489.04;;;-3.96;65.96
64211;BME280;50528;48.514;14.394;2023-02-11T00:19:01;95485.63;;;-3.97;65.97
64211;BME280;50528;48.514;14.394;2023-02-11T00:19:37;95484.75;;;-3.92;66.09
64211;BME280;50528;48.514;14.394;2023-02-11T00:20:12;95481.36;;;-3.97;66.18
64211;BME280;50528;48.514;14.394;2023-02-11T00:20:45;95484.05;;;-3.96;66.23
64211;BME280;50528;48.514;14.394;2023-02-11T00:21:21;95481.33;;;-3.96;66.25
64211;BME280;50528;48.514;14.394;2023-02-11T00:21:54;95483.23;;;-3.90;66.23
64211;BME280;50528;48.514;14.394;2023-02-11T00:22:27;95483.83;;;-3.89;66.47
64211;BME280;50528;48.514;14.394;2023-02-11T00:23:01;95485.11;;;-3.88;66.67
64211;BME280;50528;48.514;14.394;2023-02-11T00:23:34;95483.23;;;-3.88;66.83
64211;BME280;50528;48.514;14.394;2023-02-11T00:24:08;95479.52;;;-3.86;66.62
64211;BME280;50528;48.514;14.394;2023-02-11T00:24:41;95479.48;;;-3.86;66.62
64211;BME280;50528;48.514;14.394;2023-02-11T00:25:15;95483.17;;;-3.85;66.93
64211;BME280;50528;48.514;14.394;2023-02-11T00:25:48;95478.30;;;-3.82;66.81
64211;BME280;50528;48.514;14.394;2023-02-11T00:26:25;95481.86;;;-3.75;67.10
64211;BME280;50528;48.514;14.394;2023-02-11T00:26:58;95478.80;;;-3.62;67.21
64211;BME280;50528;48.514;14.394;2023-02-11T00:27:32;95479.75;;;-3.63;67.25
64211;BME280;50528;48.514;14.394;2023-02-11T00:28:05;95479.68;;;-3.64;67.27
64211;BME280;50528;48.514;14.394;2023-02-11T00:28:39;95477.48;;;-3.65;67.27
64211;BME280;50528;48.514;14.394;2023-02-11T00:29:13;95480.30;;;-3.64;67.57
64211;BME280;50528;48.514;14.394;2023-02-11T00:29:47;95483.30;;;-3.62;67.27
64211;BME280;50528;48.514;14.394;2023-02-11T00:30:20;95485.54;;;-3.60;67.54
64211;BME280;50528;48.514;14.394;2023-02-11T00:30:55;95482.53;;;-3.57;67.47
64211;BME280;50528;48.514;14.394;2023-02-11T00:31:28;95476.00;;;-3.57;67.50
64211;BME280;50528;48.514;14.394;2023-02-11T00:32:02;95479.11;;;-3.51;67.57
64211;BME280;50528;48.514;14.394;2023-02-11T00:32:37;95475.48;;;-3.37;67.52
64211;BME280;50528;48.514;14.394;2023-02-11T00:33:10;95475.27;;;-3.41;67.36
64211;BME280;50528;48.514;14.394;2023-02-11T00:33:44;95473.56;;;-3.42;67.49
64211;BME280;50528;48.514;14.394;2023-02-11T00:34:17;95477.55;;;-3.40;67.42
64211;BME280;50528;48.514;14.394;2023-02-11T00:34:51;95475.35;;;-3.38;67.73
64211;BME280;50528;48.514;14.394;2023-02-11T00:35:25;95477.64;;;-3.39;67.70
64211;BME280;50528;48.514;14.394;2023-02-11T00:36:05;95476.95;;;-3.39;67.56
64211;BME280;50528;48.514;14.394;2023-02-11T00:36:39;95476.43;;;-3.39;67.58
64211;BME280;50528;48.514;14.394;2023-02-11T00:37:13;95476.26;;;-3.34;67.76
64211;BME280;50528;48.514;14.394;2023-02-11T00:37:46;95473.14;;;-3.34;67.59
64211;BME280;50528;48.514;14.394;2023-02-11T00:38:20;95477.38;;;-3.34;67.58
64211;BME280;50528;48.514;14.394;2023-02-11T00:38:54;95472.77;;;-3.34;67.56
64211;BME280;50528;48.514;14.394;2023-02-11T00:39:29;95477.86;;;-3.24;67.61
64211;BME280;50528;48.514;14.394;2023-02-11T00:40:03;95479.89;;;-3.24;67.40
64211;BME280;50528;48.514;14.394;2023-02-11T00:40:38;95480.13;;;-3.27;67.47
64211;BME280;50528;48.514;14.394;2023-02-11T00:41:12;95477.59;;;-3.28;67.65
64211;BME280;50528;48.514;14.394;2023-02-11T00:41:46;95479.17;;;-3.26;67.46
64211;BME280;50528;48.514;14.394;2023-02-11T00:42:19;95479.88;;;-3.26;67.51
64211;BME280;50528;48.514;14.394;2023-02-11T00:42:52;95478.52;;;-3.26;67.37
64211;BME280;50528;48.514;14.394;2023-02-11T00:43:25;95480.54;;;-3.25;67.43
64211;BME280;50528;48.514;14.394;2023-02-11T00:44:00;95479.41;;;-3.24;67.39
64211;BME280;50528;48.514;14.394;2023-02-11T00:44:33;95479.40;;;-3.23;67.59
64211;BME280;50528;48.514;14.394;2023-02-11T00:45:07;95481.90;;;-3.23;67.45
64211;BME280;50528;48.514;14.394;2023-02-11T00:45:41;95480.46;;;-3.25;67.43
64211;BME280;50528;48.514;14.394;2023-02-11T00:46:15;95479.50;;;-3.26;67.41
64211;BME280;50528;48.514;14.394;2023-02-11T00:46:49;95475.05;;;-3.28;67.45
64211;BME280;50528;48.514;14.394;2023-02-11T00:47:25;95477.38;;;-3.23;67.39
64211;BME280;50528;48.514;14.394;2023-02-11T00:47:58;95476.86;;;-3.25;67.37
64211;BME280;50528;48.514;14.394;2023-02-11T00:48:33;95474.16;;;-3.25;67.31
64211;BME280;50528;48.514;14.394;2023-02-11T00:49:06;95475.05;;;-3.25;67.27
64211;BME280;50528;48.514;14.394;2023-02-11T00:49:40;95471.94;;;-3.25;67.42
64211;BME280;50528;48.514;14.394;2023-02-11T00:50:13;95474.45;;;-3.25;67.30
64211;BME280;50528;48.514;14.394;2023-02-11T00:50:47;95471.69;;;-3.24;67.34
64211;BME280;50528;48.514;14.394;2023-02-11T00:51:20;95472.25;;;-3.21;67.44
64211;BME280;50528;48.514;14.394;2023-02-11T00:51:54;95474.66;;;-3.21;67.42
64211;BME280;50528;48.514;14.394;2023-02-11T00:52:27;95470.83;;;-3.23;67.33
64211;BME280;50528;48.514;14.394;2023-02-11T00:53:00;95468.21;;;-3.22;67.55
64211;BME280;50528;48.514;14.394;2023-02-11T00:53:35;95465.13;;;-3.22;67.55
64211;BME280;50528;48.514;14.394;2023-02-11T00:54:09;95466.90;;;-3.23;67.35
64211;BME280;50528;48.514;14.394;2023-02-11T00:54:43;95467.77;;;-3.23;67.55
64211;BME280;50528;48.514;14.394;2023-02-11T00:55:17;95465.33;;;-3.22;67.60
64211;BME280;50528;48.514;14.394;2023-02-11T00:55:50;95466.29;;;-3.21;67.67
64211;BME280;50528;48.514;14.394;2023-02-11T00:56:24;95467.51;;;-3.19;67.70
64211;BME280;50528;48.514;14.394;2023-02-11T00:56:57;95464.96;;;-3.20;67.68
64211;BME280;50528;48.514;14.394;2023-02-11T00:57:31;95466.53;;;-3.20;67.81
64211;BME280;50528;48.514;14.394;2023-02-11T00:58:04;95468.31;;;-3.19;67.71
64211;BME280;50528;48.514;14.394;2023-02-11T00:58:38;95466.89;;;-3.18;67.71
64211;BME280;50528;48.514;14.394;2023-02-11T00:59:11;95466.29;;;-3.17;67.69
64211;BME280;50528;48.514;14.394;2023-02-11T00:59:44;95468.18;;;-3.18;67.62
64211;BME280;50528;48.514;14.394;2023-02-11T01:00:17;95468.70;;;-3.17;67.54
64211;BME280;50528;48.514;14.394;2023-02-11T01:00:52;95466.88;;;-3.20;67.53
64211;BME280;50528;48.514;14.394;2023-02-11T01:01:26;95467.84;;;-3.21;67.58
64211;BME280;50528;48.514;14.394;2023-02-11T01:01:59;95467.09;;;-3.21;67.49
64211;BME280;50528;48.514;14.394;2023-02-11T01:02:33;95471.46;;;-3.22;67.38
64211;BME280;50528;48.514;14.394;2023-02-11T01:03:06;95470.64;;;-3.24;67.47
64211;BME280;50528;48.514;14.394;2023-02-11T01:03:40;95471.08;;;-3.23;67.43
64211;BME280;50528;48.514;14.394;2023-02-11T01:04:13;95472.84;;;-3.24;67.33
64211;BME280;50528;48.514;14.394;2023-02-11T01:04:47;95474.15;;;-3.23;67.46
64211;BME280;50528;48.514;14.394;2023-02-11T01:05:20;95474.06;;;-3.24;67.45
64211;BME280;50528;48.514;14.394;2023-02-11T01:05:54;95472.73;;;-3.24;67.44
64211;BME280;50528;48.514;14.394;2023-02-11T01:06:27;95470.64;;;-3.26;67.29
64211;BME280;50528;48.514;14.394;2023-02-11T01:07:01;95471.06;;;-3.23;67.51
64211;BME280;50528;48.514;14.394;2023-02-11T01:07:34;95473.54;;;-3.22;67.42
64211;BME280;50528;48.514;14.394;2023-02-11T01:08:07;95473.00;;;-3.22;67.21
64211;BME280;50528;48.514;14.394;2023-02-11T01:08:41;95472.02;;;-3.22;67.34
64211;BME280;50528;48.514;14.394;2023-02-11T01:09:15;95470.70;;;-3.23;67.32
64211;BME280;50528;48.514;14.394;2023-02-11T01:09:51;95468.64;;;-3.25;67.11
64211;BME280;50528;48.514;14.394;2023-02-11T01:10:27;95470.66;;;-3.27;67.00
64211;BME280;50528;48.514;14.394;2023-02-11T01:11:04;95468.23;;;-3.29;66.85
64211;BME280;50528;48.514;14.394;2023-02-11T01:11:37;95469.65;;;-3.31;66.67
64211;BME280;50528;48.514;14.394;2023-02-11T01:12:11;95469.24;;;-3.35;66.09
64211;BME280;50528;48.514;14.394;2023-02-11T01:12:45;95463.05;;;-3.41;66.19
64211;BME280;50528;48.514;14.394;2023-02-11T01:13:19;95464.23;;;-3.47;66.27
64211;BME280;50528;48.514;14.394;2023-02-11T01:13:52;95462.31;;;-3.51;66.08
64211;BME280;50528;48.514;14.394;2023-02-11T01:14:27;95459.08;;;-3.53;66.09
64211;BME280;50528;48.514;14.394;2023-02-11T01:15:00;95463.38;;;-3.55;66.03
64211;BME280;50528;48.514;14.394;2023-02-11T01:15:34;95459.43;;;-3.58;66.06
64211;BME280;50528;48.514;14.394;2023-02-11T01:16:09;95463.47;;;-3.61;65.86
64211;BME280;50528;48.514;14.394;2023-02-11T01:16:43;95457.02;;;-3.61;65.87
64211;BME280;50528;48.514;14.394;2023-02-11T01:17:16;95453.63;;;-3.64;65.65
64211;BME280;50528;48.514;14.394;2023-02-11T01:17:49;95455.54;;;-3.67;65.69
64211;BME280;50528;48.514;14.394;2023-02-11T01:18:23;95447.42;;;-3.70;65.54
64211;BME280;50528;48.514;14.394;2023-02-11T01:18:57;95456.98;;;-3.67;65.53
64211;BME280;50528;48.514;14.394;2023-02-11T01:19:30;95456.63;;;-3.70;65.64
64211;BME280;50528;48.514;14.394;2023-02-11T01:20:06;95458.44;;;-3.71;65.61
64211;BME280;50528;48.514;14.394;2023-02-11T01:20:40;95458.14;;;-3.72;65.75
64211;BME280;50528;48.514;14.394;2023-02-11T01:21:13;95457.02;;;-3.75;65.64
64211;BME280;50528;48.514;14.394;2023-02-11T01:21:48;95457.86;;;-3.75;65.57
64211;BME280;50528;48.514;14.394;2023-02-11T01:22:21;95451.63;;;-3.76;65.61
64211;BME280;50528;48.514;14.394;2023-02-11T01:22:55;95453.61;;;-3.77;65.64
64211;BME280;50528;48.514;14.394;2023-02-11T01:23:28;95451.05;;;-3.78;65.76
64211;BME280;50528;48.514;14.394;2023-02-11T01:24:01;95455.36;;;-3.76;65.94
64211;BME280;50528;48.514;14.394;2023-02-11T01:24:35;95454.20;;;-3.76;66.17
64211;BME280;50528;48.514;14.394;2023-02-11T01:25:09;95453.71;;;-3.76;66.40
64211;BME280;50528;48.514;14.394;2023-02-11T01:25:43;95452.21;;;-3.72;66.38
64211;BME280;50528;48.514;14.394;2023-02-11T01:26:16;95452.14;;;-3.72;66.55
64211;BME280;50528;48.514;14.394;2023-02-11T01:26:49;95444.52;;;-3.57;66.83
64211;BME280;50528;48.514;14.394;2023-02-11T01:27:23;95440.88;;;-3.44;67.02
64211;BME280;50528;48.514;14.394;2023-02-11T01:27:56;95446.64;;;-3.39;67.30
64211;BME280;50528;48.514;14.394;2023-02-11T01:28:30;95446.48;;;-3.48;67.29
64211;BME280;50528;48.514;14.394;2023-02-11T01:29:04;95448.95;;;-3.48;67.78
64211;BME280;50528;48.514;14.394;2023-02-11T01:29:38;95443.39;;;-3.50;67.55
64211;BME280;50528;48.514;14.394;2023-02-11T01:30:13;95439.65;;;-3.50;67.54
64211;BME280;50528;48.514;14.394;2023-02-11T01:30:46;95441.20;;;-3.42;67.79
64211;BME280;50528;48.514;14.394;2023-02-11T01:31:20;95440.28;;;-3.39;67.88
64211;BME280;50528;48.514;14.394;2023-02-11T01:31:53;95441.48;;;-3.37;67.98
64211;BME280;50528;48.514;14.394;2023-02-11T01:32:26;95437.19;;;-3.37;67.94
64211;BME280;50528;48.514;14.394;2023-02-11T01:33:00;95434.77;;;-3.28;67.80
64211;BME280;50528;48.514;14.394;2023-02-11T01:33:34;95435.85;;;-3.24;67.84
64211;BME280;50528;48.514;14.394;2023-02-11T01:34:10;95435.84;;;-3.24;67.91
64211;BME280;50528;48.514;14.394;2023-02-11T01:34:43;95437.65;;;-3.23;68.02
64211;BME280;50528;48.514;14.394;2023-02-11T01:35:18;95438.64;;;-3.25;67.90
64211;BME280;50528;48.514;14.394;2023-02-11T01:35:51;95433.95;;;-3.20;68.13
64211;BME280;50528;48.514;14.394;2023-02-11T01:36:25;95435.60;;;-3.15;67.98
64211;BME280;50528;48.514;14.394;2023-02-11T01:36:58;95437.20;;;-3.07;67.98
64211;BME280;50528;48.514;14.394;2023-02-11T01:37:34;95434.35;;;-3.10;67.87
64211;BME280;50528;48.514;14.394;2023-02-11T01:38:17;95429.42;;;-3.11;68.31
64211;BME280;50528;48.514;14.394;2023-02-11T01:38:51;95433.48;;;-3.12;67.93
64211;BME280;50528;48.514;14.394;2023-02-11T01:39:25;95428.63;;;-3.10;68.13
64211;BME280;50528;48.514;14.394;2023-02-11T01:40:01;95432.84;;;-3.08;68.06
64211;BME280;50528;48.514;14.394;2023-02-11T01:40:34;95433.91;;;-3.09;68.00
64211;BME280;50528;48.514;14.394;2023-02-11T01:41:11;95436.38;;;-3.04;68.02
64211;BME280;50528;48.514;14.394;2023-02-11T01:41:44;95431.98;;;-3.02;68.03
64211;BME280;50528;48.514;14.394;2023-02-11T01:42:20;95430.36;;;-2.99;68.00
64211;BME280;50528;48.514;14.394;2023-02-11T01:42:54;95428.55;;;-3.01;68.00
64211;BME280;50528;48.514;14.394;2023-02-11T01:43:31;95427.91;;;-2.99;68.07
64211;BME280;50528;48.514;14.394;2023-02-11T01:44:30;95428.17;;;-3.00;68.05
64211;BME280;50528;48.514;14.394;2023-02-11T01:46:34;95423.47;;;-3.03;67.79
64211;BME280;50528;48.514;14.394;2023-02-11T01:47:09;95422.84;;;-3.04;67.88
64211;BME280;50528;48.514;14.394;2023-02-11T01:47:42;95418.70;;;-2.98;68.01
64211;BME280;50528;48.514;14.394;2023-02-11T01:48:20;95416.49;;;-2.94;67.89
64211;BME280;50528;48.514;14.394;2023-02-11T01:49:14;95411.45;;;-2.93;67.95
64211;BME280;50528;48.514;14.394;2023-02-11T01:49:55;95414.34;;;-2.93;68.10
64211;BME280;50528;48.514;14.394;2023-02-11T01:50:29;95418.30;;;-2.95;67.99
64211;BME280;50528;48.514;14.394;2023-02-11T01:51:28;95422.42;;;-2.95;67.98
64211;BME280;50528;48.514;14.394;2023-02-11T01:52:09;95418.16;;;-2.97;67.76
64211;BME280;50528;48.514;14.394;2023-02-11T01:52:44;95425.73;;;-2.97;67.68
64211;BME280;50528;48.514;14.394;2023-02-11T01:53:20;95426.96;;;-3.00;67.68
64211;BME280;50528;48.514;14.394;2023-02-11T01:54:16;95427.36;;;-3.01;67.88
64211;BME280;50528;48.514;14.394;2023-02-11T01:55:11;95422.92;;;-2.97;67.68
64211;BME280;50528;48.514;14.394;2023-02-11T01:56:04;95424.33;;;-2.99;67.74
64211;BME280;50528;48.514;14.394;2023-02-11T01:56:58;95426.95;;;-3.02;67.72
64211;BME280;50528;48.514;14.394;2023-02-11T01:57:53;95424.64;;;-3.05;67.65
64211;BME280;50528;48.514;14.394;2023-02-11T01:58:31;95422.80;;;-3.06;67.61
64211;BME280;50528;48.514;14.394;2023-02-11T01:59:11;95420.13;;;-3.06;67.52
64211;BME280;50528;48.514;14.394;2023-02-11T02:00:33;95421.75;;;-3.09;67.20
64211;BME280;50528;48.514;14.394;2023-02-11T02:01:10;95420.94;;;-3.10;67.00
64211;BME280;50528;48.514;14.394;2023-02-11T02:01:49;95415.21;;;-3.17;66.92
64211;BME280;50528;48.514;14.394;2023-02-11T02:03:19;95418.70;;;-3.28;66.83
64211;BME280;50528;48.514;14.394;2023-02-11T02:03:59;95416.08;;;-3.30;66.86
64211;BME280;50528;48.514;14.394;2023-02-11T02:04:38;95414.52;;;-3.32;66.75
64211;BME280;50528;48.514;14.394;2023-02-11T02:06:02;95416.80;;;-3.43;66.75
64211;BME280;50528;48.514;14.394;2023-02-11T02:06:55;95413.24;;;-3.46;66.77
64211;BME280;50528;48.514;14.394;2023-02-11T02:07:35;95413.05;;;-3.52;66.62
64211;BME280;50528;48.514;14.394;2023-02-11T02:09:08;95411.28;;;-3.61;66.60
64211;BME280;50528;48.514;14.394;2023-02-11T02:09:48;95410.58;;;-3.63;66.76
64211;BME280;50528;48.514;14.394;2023-02-11T02:10:26;95408.64;;;-3.63;66.46
64211;BME280;50528;48.514;14.394;2023-02-11T02:11:00;95406.77;;;-3.67;66.72
64211;BME280;50528;48.514;14.394;2023-02-11T02:11:35;95409.15;;;-3.69;67.11
64211;BME280;50528;48.514;14.394;2023-02-11T02:12:09;95405.95;;;-3.70;67.00
64211;BME280;50528;48.514;14.394;2023-02-11T02:12:42;95403.55;;;-3.70;67.01
64211;BME280;50528;48.514;14.394;2023-02-11T02:13:15;95399.83;;;-3.75;66.91
64211;BME280;50528;48.514;14.394;2023-02-11T02:13:49;95403.90;;;-3.75;67.08
64211;BME280;50528;48.514;14.394;2023-02-11T02:14:25;95402.76;;;-3.73;67.16
64211;BME280;50528;48.514;14.394;2023-02-11T02:15:18;95402.02;;;-3.75;67.03
64211;BME280;50528;48.514;14.394;2023-02-11T02:16:03;95400.53;;;-3.75;67.13
64211;BME280;50528;48.514;14.394;2023-02-11T02:16:41;95392.64;;;-3.79;67.14
64211;BME280;50528;48.514;14.394;2023-02-11T02:17:37;95397.83;;;-3.74;67.20
64211;BME280;50528;48.514;14.394;2023-02-11T02:18:38;95397.86;;;-3.72;67.48
64211;BME280;50528;48.514;14.394;2023-02-11T02:23:10;95385.30;;;-3.64;67.48
64211;BME280;50528;48.514;14.394;2023-02-11T02:27:51;95376.89;;;-3.64;67.25
64211;BME280;50528;48.514;14.394;2023-02-11T02:31:22;95371.98;;;-3.54;67.38
64211;BME280;50528;48.514;14.394;2023-02-11T02:33:59;95364.20;;;-3.49;67.48
64211;BME280;50528;48.514;14.394;2023-02-11T02:35:32;95359.13;;;-3.42;67.52
64211;BME280;50528;48.514;14.394;2023-02-11T02:37:50;95345.13;;;-3.43;67.52
64211;BME280;50528;48.514;14.394;2023-02-11T02:38:54;95358.99;;;-3.32;67.37
64211;BME280;50528;48.514;14.394;2023-02-11T02:39:33;95354.59;;;-3.26;67.48
64211;BME280;50528;48.514;14.394;2023-02-11T02:40:14;95359.08;;;-3.23;67.18
64211;BME280;50528;48.514;14.394;2023-02-11T02:41:31;95355.42;;;-3.18;67.30
64211;BME280;50528;48.514;14.394;2023-02-11T02:42:05;95353.19;;;-3.16;67.15
64211;BME280;50528;48.514;14.394;2023-02-11T02:42:40;95344.23;;;-3.24;67.35
64211;BME280;50528;48.514;14.394;2023-02-11T02:43:14;95352.70;;;-3.14;67.23
64211;BME280;50528;48.514;14.394;2023-02-11T02:43:50;95343.27;;;-3.16;67.38
64211;BME280;50528;48.514;14.394;2023-02-11T02:44:24;95351.98;;;-3.06;67.11
64211;BME280;50528;48.514;14.394;2023-02-11T02:44:58;95355.10;;;-3.00;67.19
64211;BME280;50528;48.514;14.394;2023-02-11T02:45:32;95352.17;;;-3.00;67.12
64211;BME280;50528;48.514;14.394;2023-02-11T02:46:16;95354.98;;;-2.96;67.07
64211;BME280;50528;48.514;14.394;2023-02-11T02:46:50;95350.29;;;-2.95;67.08
64211;BME280;50528;48.514;14.394;2023-02-11T02:47:23;95351.41;;;-2.93;67.04
64211;BME280;50528;48.514;14.394;2023-02-11T02:47:57;95350.96;;;-2.87;67.03
64211;BME280;50528;48.514;14.394;2023-02-11T02:48:32;95355.73;;;-2.89;67.13
64211;BME280;50528;48.514;14.394;2023-02-11T02:50:43;95353.73;;;-2.83;66.84
64211;BME280;50528;48.514;14.394;2023-02-11T02:52:15;95352.83;;;-2.87;66.85
64211;BME280;50528;48.514;14.394;2023-02-11T02:53:35;95356.69;;;-2.85;66.87
64211;BME280;50528;48.514;14.394;2023-02-11T02:55:29;95350.68;;;-2.88;66.80
64211;BME280;50528;48.514;14.394;2023-02-11T02:56:24;95347.12;;;-2.88;66.81
64211;BME280;50528;48.514;14.394;2023-02-11T03:02:24;95340.41;;;-2.80;66.72
64211;BME280;50528;48.514;14.394;2023-02-11T03:04:49;95320.59;;;-2.81;66.82
64211;BME280;50528;48.514;14.394;2023-02-11T03:05:58;95323.27;;;-2.70;66.78
64211;BME280;50528;48.514;14.394;2023-02-11T03:06:54;95322.35;;;-2.67;66.67
64211;BME280;50528;48.514;14.394;2023-02-11T03:07:36;95321.13;;;-2.67;66.63
64211;BME280;50528;48.514;14.394;2023-02-11T03:08:26;95319.13;;;-2.64;66.54
64211;BME280;50528;48.514;14.394;2023-02-11T03:09:55;95323.63;;;-2.56;66.33
64211;BME280;50528;48.514;14.394;2023-02-11T03:10:35;95319.32;;;-2.48;66.10
64211;BME280;50528;48.514;14.394;2023-02-11T03:11:10;95324.89;;;-2.45;66.02
64211;BME280;50528;48.514;14.394;2023-02-11T03:11:47;95323.45;;;-2.42;65.98
64211;BME280;50528;48.514;14.394;2023-02-11T03:12:21;95326.56;;;-2.44;66.04
64211;BME280;50528;48.514;14.394;2023-02-11T03:12:56;95338.90;;;-2.42;65.99
64211;BME280;50528;48.514;14.394;2023-02-11T03:13:32;95331.11;;;-2.34;65.82
64211;BME280;50528;48.514;14.394;2023-02-11T03:14:10;95337.38;;;-2.34;65.78
64211;BME280;50528;48.514;14.394;2023-02-11T03:14:46;95334.48;;;-2.29;65.60
64211;BME280;50528;48.514;14.394;2023-02-11T03:15:24;95332.89;;;-2.28;65.52
64211;BME280;50528;48.514;14.394;2023-02-11T03:16:08;95333.29;;;-2.27;65.64
64211;BME280;50528;48.514;14.394;2023-02-11T03:16:44;95334.48;;;-2.31;65.72
64211;BME280;50528;48.514;14.394;2023-02-11T03:17:18;95340.40;;;-2.30;65.80
64211;BME280;50528;48.514;14.394;2023-02-11T03:17:55;95346.10;;;-2.30;65.86
64211;BME280;50528;48.514;14.394;2023-02-11T03:18:32;95343.74;;;-2.30;65.83
64211;BME280;50528;48.514;14.394;2023-02-11T03:19:35;95347.94;;;-2.31;65.82
64211;BME280;50528;48.514;14.394;2023-02-11T03:20:12;95340.13;;;-2.34;65.94
64211;BME280;50528;48.514;14.394;2023-02-11T03:20:49;95338.23;;;-2.34;65.93
64211;BME280;50528;48.514;14.394;2023-02-11T03:21:24;95333.70;;;-2.34;65.74
64211;BME280;50528;48.514;14.394;2023-02-11T03:22:04;95329.42;;;-2.32;65.79
64211;BME280;50528;48.514;14.394;2023-02-11T03:22:49;95332.05;;;-2.30;65.81
64211;BME280;50528;48.514;14.394;2023-02-11T03:23:38;95330.96;;;-2.32;65.70
64211;BME280;50528;48.514;14.394;2023-02-11T03:24:34;95334.50;;;-2.33;65.76
64211;BME280;50528;48.514;14.394;2023-02-11T03:25:09;95321.01;;;-2.30;65.57
64211;BME280;50528;48.514;14.394;2023-02-11T03:25:50;95327.44;;;-2.29;65.64
64211;BME280;50528;48.514;14.394;2023-02-11T03:26:29;95326.52;;;-2.30;65.60
64211;BME280;50528;48.514;14.394;2023-02-11T03:27:45;95321.53;;;-2.32;65.63
64211;BME280;50528;48.514;14.394;2023-02-11T03:28:32;95307.92;;;-2.43;65.72
64211;BME280;50528;48.514;14.394;2023-02-11T03:29:51;95320.23;;;-2.35;65.66
64211;BME280;50528;48.514;14.394;2023-02-11T03:30:33;95317.70;;;-2.35;65.63
64211;BME280;50528;48.514;14.394;2023-02-11T03:32:35;95313.65;;;-2.34;65.69
64211;BME280;50528;48.514;14.394;2023-02-11T03:33:24;95313.86;;;-2.30;65.58
64211;BME280;50528;48.514;14.394;2023-02-11T03:34:37;95309.41;;;-2.33;65.66
64211;BME280;50528;48.514;14.394;2023-02-11T03:35:14;95310.52;;;-2.28;65.77
64211;BME280;50528;48.514;14.394;2023-02-11T03:35:54;95308.52;;;-2.28;65.68
64211;BME280;50528;48.514;14.394;2023-02-11T03:36:48;95315.35;;;-2.28;65.74
64211;BME280;50528;48.514;14.394;2023-02-11T03:37:28;95317.71;;;-2.28;65.69
64211;BME280;50528;48.514;14.394;2023-02-11T03:38:15;95316.42;;;-2.25;65.55
64211;BME280;50528;48.514;14.394;2023-02-11T03:39:08;95312.21;;;-2.29;65.63
64211;BME280;50528;48.514;14.394;2023-02-11T03:40:00;95319.94;;;-2.27;65.65
64211;BME280;50528;48.514;14.394;2023-02-11T03:40:37;95313.08;;;-2.29;65.74
64211;BME280;50528;48.514;14.394;2023-02-11T03:41:13;95315.83;;;-2.28;65.71
64211;BME280;50528;48.514;14.394;2023-02-11T03:41:48;95317.06;;;-2.22;65.76
64211;BME280;50528;48.514;14.394;2023-02-11T03:42:26;95317.84;;;-2.19;65.45
64211;BME280;50528;48.514;14.394;2023-02-11T03:43:07;95323.24;;;-2.18;65.57
64211;BME280;50528;48.514;14.394;2023-02-11T03:43:48;95321.41;;;-2.21;65.53
64211;BME280;50528;48.514;14.394;2023-02-11T03:44:25;95322.23;;;-2.23;65.64
64211;BME280;50528;48.514;14.394;2023-02-11T03:45:06;95315.52;;;-2.20;65.61
64211;BME280;50528;48.514;14.394;2023-02-11T03:45:42;95311.92;;;-2.20;65.75
64211;BME280;50528;48.514;14.394;2023-02-11T03:46:18;95319.52;;;-2.17;65.67
64211;BME280;50528;48.514;14.394;2023-02-11T03:46:54;95318.48;;;-2.18;65.73
64211;BME280;50528;48.514;14.394;2023-02-11T03:47:29;95316.29;;;-2.17;65.62
64211;BME280;50528;48.514;14.394;2023-02-11T03:48:54;95324.59;;;-2.16;65.61
64211;BME280;50528;48.514;14.394;2023-02-11T03:49:29;95322.34;;;-2.18;65.60
64211;BME280;50528;48.514;14.394;2023-02-11T03:50:07;95324.91;;;-2.16;65.65
64211;BME280;50528;48.514;14.394;2023-02-11T03:50:43;95325.01;;;-2.15;65.70